createdAt,value
2018-11-29T00:00:38.787Z,21.82
2018-11-29T00:03:08.376Z,21.62
2018-11-29T00:05:36.597Z,21.97
2018-11-29T00:08:05.770Z,22.77
2018-11-29T00:10:34.119Z,22.75
2018-11-29T00:13:02.753Z,23.10
2018-11-29T00:15:30.972Z,22.17
2018-11-29T00:17:59.063Z,23.42
2018-11-29T00:20:27.440Z,21.93
2018-11-29T00:22:55.589Z,24.02
2018-11-29T00:25:23.714Z,21.62
2018-11-29T00:27:51.974Z,22.37
2018-11-29T00:30:22.072Z,23.90
2018-11-29T00:32:51.491Z,22.93
2018-11-29T00:35:19.715Z,20.70
2018-11-29T00:37:47.982Z,22.85
2018-11-29T00:40:22.188Z,22.73
2018-11-29T00:42:50.437Z,23.67
2018-11-29T00:45:20.400Z,22.67
2018-11-29T00:47:48.806Z,23.02
2018-11-29T00:50:18.296Z,24.45
2018-11-29T00:52:48.872Z,25.68
2018-11-29T00:55:21.754Z,24.05
2018-11-29T00:57:50.585Z,24.67
2018-11-29T01:00:23.198Z,25.48
2018-11-29T01:02:51.388Z,23.65
2018-11-29T01:05:19.651Z,25.27
2018-11-29T01:07:47.937Z,25.37
2018-11-29T01:10:17.726Z,24.60
2018-11-29T01:12:46.848Z,24.43
2018-11-29T01:15:19.421Z,25.32
2018-11-29T01:17:48.840Z,25.80
2018-11-29T01:20:18.768Z,24.30
2018-11-29T01:22:47.026Z,25.55
2018-11-29T01:25:15.630Z,23.50
2018-11-29T01:27:47.378Z,23.65
2018-11-29T01:30:16.951Z,25.37
2018-11-29T01:32:45.046Z,26.00
2018-11-29T01:35:14.835Z,24.15
2018-11-29T01:37:43.000Z,23.75
2018-11-29T01:40:16.542Z,24.07
2018-11-29T01:42:48.106Z,25.82
2018-11-29T01:45:16.262Z,24.45
2018-11-29T01:47:44.342Z,22.98
2018-11-29T01:50:12.628Z,27.77
2018-11-29T01:52:40.791Z,26.05
2018-11-29T01:55:09.400Z,26.17
2018-11-29T01:57:37.602Z,25.70
2018-11-29T02:00:10.337Z,23.95
2018-11-29T02:02:38.395Z,24.85
2018-11-29T02:05:09.003Z,26.37
2018-11-29T02:07:37.170Z,25.45
2018-11-29T02:10:15.224Z,25.77
2018-11-29T02:12:43.394Z,26.02
2018-11-29T02:15:12.185Z,23.52
2018-11-29T02:17:40.422Z,22.62
2018-11-29T02:20:11.040Z,24.47
2018-11-29T02:22:39.193Z,24.50
2018-11-29T02:25:08.114Z,24.37
2018-11-29T02:27:36.122Z,25.45
2018-11-29T02:30:09.552Z,23.20
2018-11-29T02:32:37.644Z,23.83
2018-11-29T02:35:06.421Z,22.32
2018-11-29T02:37:34.442Z,23.38
2018-11-29T02:40:02.682Z,24.02
2018-11-29T02:42:30.830Z,23.77
2018-11-29T02:44:59.023Z,24.02
2018-11-29T02:47:27.059Z,23.47
2018-11-29T02:49:55.395Z,22.35
2018-11-29T02:52:23.482Z,25.00
2018-11-29T02:54:51.587Z,22.95
2018-11-29T02:57:20.051Z,23.52
2018-11-29T02:59:48.190Z,23.02
2018-11-29T03:02:16.400Z,21.93
2018-11-29T03:04:44.693Z,22.35
2018-11-29T03:07:12.942Z,22.13
2018-11-29T03:09:41.101Z,23.15
2018-11-29T03:12:09.265Z,21.80
2018-11-29T03:14:37.359Z,22.62
2018-11-29T03:17:05.929Z,22.00
2018-11-29T03:19:34.103Z,22.35
2018-11-29T03:22:02.309Z,22.02
2018-11-29T03:24:30.399Z,21.33
2018-11-29T03:26:59.147Z,23.00
2018-11-29T03:29:27.208Z,22.93
2018-11-29T03:31:55.331Z,23.02
2018-11-29T03:34:23.528Z,23.42
2018-11-29T03:36:52.409Z,22.77
2018-11-29T03:39:20.534Z,21.20
2018-11-29T03:41:48.886Z,21.33
2018-11-29T03:44:17.095Z,22.50
2018-11-29T03:46:45.907Z,21.23
2018-11-29T03:49:14.038Z,22.20
2018-11-29T03:51:42.141Z,21.17
2018-11-29T03:54:10.262Z,19.70
2018-11-29T03:56:38.384Z,21.23
2018-11-29T03:59:06.755Z,21.62
2018-11-29T04:01:34.827Z,20.55
2018-11-29T04:04:03.019Z,21.62
2018-11-29T04:06:31.121Z,19.87
2018-11-29T04:08:59.182Z,19.77
2018-11-29T04:11:27.424Z,19.80
2018-11-29T04:13:55.482Z,20.88
2018-11-29T04:16:23.590Z,21.65
2018-11-29T04:18:51.787Z,20.12
2018-11-29T04:21:19.874Z,21.48
2018-11-29T04:23:48.219Z,21.45
2018-11-29T04:26:16.358Z,21.00
2018-11-29T04:28:45.335Z,21.05
2018-11-29T04:31:13.406Z,21.90
2018-11-29T04:33:41.522Z,20.85
2018-11-29T04:36:09.718Z,19.98
2018-11-29T04:38:38.287Z,22.10
2018-11-29T04:41:06.327Z,21.70
2018-11-29T04:43:34.466Z,20.23
2018-11-29T04:46:48.738Z,20.43
2018-11-29T04:49:16.865Z,21.27
2018-11-29T04:51:49.236Z,20.40
2018-11-29T04:54:17.282Z,21.27
2018-11-29T04:56:45.563Z,22.62
2018-11-29T04:59:13.775Z,21.68
2018-11-29T05:01:42.674Z,20.82
2018-11-29T05:04:10.945Z,20.90
2018-11-29T05:06:39.106Z,20.90
2018-11-29T05:09:13.272Z,20.88
2018-11-29T05:11:41.439Z,21.45
2018-11-29T05:14:09.766Z,19.10
2018-11-29T05:16:44.813Z,21.68
2018-11-29T05:19:19.601Z,20.50
2018-11-29T05:21:47.799Z,21.05
2018-11-29T05:24:16.246Z,21.07
2018-11-29T05:26:44.455Z,20.25
2018-11-29T05:29:12.711Z,22.17
2018-11-29T05:31:40.970Z,21.00
2018-11-29T05:34:09.293Z,20.57
2018-11-29T05:36:37.843Z,19.40
2018-11-29T05:39:07.294Z,21.70
2018-11-29T05:41:35.933Z,19.45
2018-11-29T05:44:04.296Z,21.55
2018-11-29T05:46:32.734Z,20.62
2018-11-29T05:49:01.096Z,21.20
2018-11-29T05:51:29.360Z,21.10
2018-11-29T05:53:57.574Z,22.55
2018-11-29T05:56:25.814Z,22.13
2018-11-29T05:58:53.952Z,21.65
2018-11-29T06:01:26.578Z,22.95
2018-11-29T06:03:54.860Z,21.77
2018-11-29T06:06:23.143Z,22.25
2018-11-29T06:08:51.363Z,22.87
2018-11-29T06:11:19.598Z,20.37
2018-11-29T06:13:47.878Z,21.93
2018-11-29T06:16:16.166Z,23.02
2018-11-29T06:18:44.400Z,23.65
2018-11-29T06:21:13.626Z,22.58
2018-11-29T06:23:41.979Z,21.55
2018-11-29T06:26:10.435Z,23.10
2018-11-29T06:28:38.943Z,23.83
2018-11-29T06:31:07.447Z,21.80
2018-11-29T06:33:35.853Z,22.02
2018-11-29T06:36:04.592Z,23.65
2018-11-29T06:38:34.109Z,22.02
2018-11-29T06:41:02.447Z,22.85
2018-11-29T06:43:31.043Z,21.73
2018-11-29T06:45:59.412Z,24.40
2018-11-29T06:48:27.623Z,25.45
2018-11-29T06:50:55.703Z,24.90
2018-11-29T06:53:29.563Z,24.85
2018-11-29T06:55:57.642Z,21.95
2018-11-29T06:58:25.758Z,23.75
2018-11-29T07:00:53.907Z,22.25
2018-11-29T07:03:22.077Z,25.25
2018-11-29T07:05:50.263Z,22.98
2018-11-29T07:08:18.741Z,23.38
2018-11-29T07:10:46.930Z,24.85
2018-11-29T07:13:15.265Z,25.05
2018-11-29T07:18:18.563Z,22.42
2018-11-29T07:21:03.959Z,24.15
2018-11-29T07:23:32.277Z,25.12
2018-11-29T07:26:01.200Z,25.55
2018-11-29T07:28:34.250Z,24.82
2018-11-29T07:31:02.583Z,25.32
2018-11-29T07:33:30.909Z,25.05
2018-11-29T07:35:59.103Z,25.00
2018-11-29T07:38:27.306Z,23.67
2018-11-29T07:40:55.637Z,26.05
2018-11-29T07:43:23.983Z,24.95
2018-11-29T07:45:52.192Z,25.48
2018-11-29T07:48:20.635Z,25.65
2018-11-29T07:50:48.859Z,26.37
2018-11-29T07:53:17.223Z,23.85
2018-11-29T07:55:45.483Z,24.63
2018-11-29T07:58:13.990Z,25.62
2018-11-29T08:00:42.285Z,27.07
2018-11-29T08:03:10.580Z,27.65
2018-11-29T08:05:39.103Z,25.17
2018-11-29T08:08:07.301Z,27.95
2018-11-29T08:10:35.531Z,23.95
2018-11-29T08:13:04.097Z,25.88
2018-11-29T08:15:32.633Z,26.33
2018-11-29T08:18:00.809Z,23.73
2018-11-29T08:20:29.126Z,25.00
2018-11-29T08:22:57.362Z,24.25
2018-11-29T08:25:25.889Z,26.33
2018-11-29T08:27:54.225Z,25.23
2018-11-29T08:30:22.711Z,27.75
2018-11-29T08:32:50.974Z,24.37
2018-11-29T08:35:19.289Z,23.80
2018-11-29T08:37:47.631Z,24.02
2018-11-29T08:40:21.562Z,25.62
2018-11-29T08:42:49.864Z,25.45
2018-11-29T08:45:18.139Z,24.60
2018-11-29T08:47:46.754Z,25.17
2018-11-29T08:50:15.439Z,24.52
2018-11-29T08:52:45.212Z,27.35
2018-11-29T08:55:17.321Z,26.50
2018-11-29T08:57:46.581Z,24.00
2018-11-29T09:00:16.506Z,25.27
2018-11-29T09:02:44.896Z,25.17
2018-11-29T09:05:13.891Z,24.18
2018-11-29T09:07:43.636Z,27.62
2018-11-29T09:10:20.298Z,25.23
2018-11-29T09:12:48.793Z,26.10
2018-11-29T09:15:17.499Z,25.90
2018-11-29T09:17:45.979Z,24.25
2018-11-29T09:20:20.349Z,25.62
2018-11-29T09:22:48.718Z,26.00
2018-11-29T09:25:21.900Z,24.52
2018-11-29T09:27:50.480Z,26.87
2018-11-29T09:30:22.669Z,25.90
2018-11-29T09:32:52.603Z,26.85
2018-11-29T09:35:23.825Z,24.80
2018-11-29T09:37:52.320Z,25.30
2018-11-29T09:40:20.856Z,25.17
2018-11-29T09:42:49.190Z,23.30
2018-11-29T09:45:19.286Z,23.18
2018-11-29T09:47:49.552Z,24.55
2018-11-29T09:50:18.197Z,22.67
2018-11-29T09:52:46.821Z,24.02
2018-11-29T09:55:20.049Z,21.73
2018-11-29T09:57:49.880Z,23.90
2018-11-29T10:00:28.582Z,21.48
2018-11-29T10:03:06.238Z,23.85
2018-11-29T10:05:34.914Z,22.75
2018-11-29T10:08:03.334Z,23.32
2018-11-29T10:10:32.337Z,22.65
2018-11-29T10:13:01.243Z,22.65
2018-11-29T10:15:29.890Z,23.80
2018-11-29T10:17:58.290Z,22.15
2018-11-29T10:20:27.552Z,22.30
2018-11-29T10:22:56.297Z,21.52
2018-11-29T10:25:24.772Z,23.67
2018-11-29T10:28:01.693Z,20.30
2018-11-29T10:30:34.614Z,20.77
2018-11-29T10:33:02.964Z,23.27
2018-11-29T10:35:31.926Z,23.22
2018-11-29T10:38:00.393Z,22.50
2018-11-29T10:40:29.036Z,22.77
2018-11-29T10:42:57.860Z,23.10
2018-11-29T10:45:25.984Z,22.82
2018-11-29T10:47:55.270Z,22.73
2018-11-29T10:50:23.529Z,23.70
2018-11-29T10:52:51.907Z,22.42
2018-11-29T10:55:20.804Z,20.90
2018-11-29T10:57:49.626Z,23.12
2018-11-29T11:00:30.574Z,23.87
2018-11-29T11:03:21.643Z,21.57
2018-11-29T11:05:51.664Z,20.97
2018-11-29T11:08:20.528Z,21.85
2018-11-29T11:10:48.887Z,20.97
2018-11-29T11:13:17.174Z,21.12
2018-11-29T11:15:45.461Z,21.48
2018-11-29T11:18:15.164Z,20.57
2018-11-29T11:20:43.994Z,21.40
2018-11-29T11:23:12.713Z,22.15
2018-11-29T11:25:41.335Z,23.80
2018-11-29T11:28:10.254Z,22.62
2018-11-29T11:30:42.330Z,21.12
2018-11-29T11:33:10.796Z,21.52
2018-11-29T11:35:39.216Z,21.68
2018-11-29T11:38:07.432Z,22.50
2018-11-29T11:40:35.795Z,23.75
2018-11-29T11:43:05.226Z,21.05
2018-11-29T11:45:32.711Z,21.52
2018-11-29T11:48:03.388Z,21.17
2018-11-29T11:50:29.691Z,21.73
2018-11-29T11:52:57.935Z,20.35
2018-11-29T11:55:29.969Z,21.20
2018-11-29T11:57:54.657Z,20.77
2018-11-29T12:00:27.449Z,21.40
2018-11-29T12:03:08.289Z,19.90
2018-11-29T12:05:37.294Z,21.97
2018-11-29T12:08:06.044Z,20.75
2018-11-29T12:10:34.627Z,22.65
2018-11-29T12:13:03.128Z,20.55
2018-11-29T12:15:32.763Z,22.22
2018-11-29T12:18:01.164Z,21.40
2018-11-29T12:20:29.563Z,19.77
2018-11-29T12:22:57.935Z,20.97
2018-11-29T12:25:26.744Z,19.82
2018-11-29T12:27:55.374Z,19.90
2018-11-29T12:30:28.816Z,20.23
2018-11-29T12:33:01.015Z,19.90
2018-11-29T12:35:29.518Z,19.55
2018-11-29T12:37:57.917Z,19.37
2018-11-29T12:40:26.477Z,19.70
2018-11-29T12:42:54.912Z,23.87
2018-11-29T12:45:23.802Z,21.00
2018-11-29T12:47:52.136Z,20.25
2018-11-29T12:50:22.806Z,18.80
2018-11-29T12:52:51.131Z,19.55
2018-11-29T12:55:22.047Z,19.75
2018-11-29T12:58:04.446Z,18.85
2018-11-29T13:00:20.518Z,19.85
2018-11-29T13:02:53.348Z,19.92
2018-11-29T13:05:21.897Z,20.88
2018-11-29T13:07:50.307Z,20.40
2018-11-29T13:10:21.059Z,21.23
2018-11-29T13:12:49.552Z,19.45
2018-11-29T13:15:21.218Z,19.30
2018-11-29T13:17:49.489Z,19.02
2018-11-29T13:20:17.874Z,18.02
2018-11-29T13:22:47.083Z,21.23
2018-11-29T13:25:17.193Z,18.07
2018-11-29T13:27:45.639Z,20.85
2018-11-29T13:30:17.420Z,19.20
2018-11-29T13:32:46.248Z,20.77
2018-11-29T13:35:18.646Z,19.65
2018-11-29T13:37:53.796Z,20.50
2018-11-29T13:40:22.123Z,21.95
2018-11-29T13:42:50.554Z,20.82
2018-11-29T13:45:18.879Z,21.97
2018-11-29T13:47:47.198Z,21.15
2018-11-29T13:50:16.593Z,21.97
2018-11-29T13:52:45.340Z,22.07
2018-11-29T13:55:15.553Z,20.10
2018-11-29T13:57:46.601Z,21.50
2018-11-29T14:00:19.539Z,20.80
2018-11-29T14:02:53.091Z,21.10
2018-11-29T14:05:21.334Z,21.25
2018-11-29T14:07:49.691Z,19.73
2018-11-29T14:10:20.947Z,21.60
2018-11-29T14:12:52.352Z,21.37
2018-11-29T14:15:24.092Z,23.07
2018-11-29T14:17:52.471Z,21.10
2018-11-29T14:20:20.665Z,20.35
2018-11-29T14:22:48.825Z,20.88
2018-11-29T14:25:17.462Z,19.70
2018-11-29T14:27:48.829Z,19.90
2018-11-29T14:30:25.419Z,19.62
2018-11-29T14:32:55.063Z,19.85
2018-11-29T14:35:23.264Z,20.65
2018-11-29T14:37:51.437Z,21.87
2018-11-29T14:40:22.533Z,19.73
2018-11-29T14:42:50.845Z,20.60
2018-11-29T14:45:22.644Z,18.17
2018-11-29T14:47:51.602Z,17.80
2018-11-29T14:50:31.917Z,18.82
2018-11-29T14:53:01.104Z,18.65
2018-11-29T14:55:29.381Z,20.72
2018-11-29T14:57:57.754Z,17.95
2018-11-29T15:00:25.932Z,18.42
2018-11-29T15:02:54.852Z,20.30
2018-11-29T15:05:27.110Z,18.27
2018-11-29T15:07:55.503Z,18.17
2018-11-29T15:10:23.861Z,17.82
2018-11-29T15:12:52.444Z,17.02
2018-11-29T15:15:20.912Z,18.25
2018-11-29T15:17:50.725Z,18.10
2018-11-29T15:20:32.498Z,17.48
2018-11-29T15:23:00.838Z,18.62
2018-11-29T15:25:29.220Z,18.30
2018-11-29T15:27:57.669Z,18.50
2018-11-29T15:30:25.894Z,19.20
2018-11-29T15:32:54.157Z,17.52
2018-11-29T15:35:22.717Z,17.15
2018-11-29T15:37:51.161Z,21.77
2018-11-29T15:40:19.660Z,16.30
2018-11-29T15:42:47.925Z,16.75
2018-11-29T15:45:25.331Z,16.60
2018-11-29T15:47:53.570Z,18.55
2018-11-29T15:50:21.916Z,18.77
2018-11-29T15:52:50.166Z,17.50
2018-11-29T15:55:20.101Z,15.95
2018-11-29T15:57:50.392Z,17.92
2018-11-29T16:00:21.334Z,19.07
2018-11-29T16:02:50.392Z,15.60
2018-11-29T16:05:18.950Z,17.42
2018-11-29T16:07:47.394Z,16.35
2018-11-29T16:10:18.662Z,16.87
2018-11-29T16:12:53.589Z,17.40
2018-11-29T16:15:22.256Z,16.05
2018-11-29T16:17:51.862Z,16.40
2018-11-29T16:20:29.745Z,16.62
2018-11-29T16:22:58.136Z,16.60
2018-11-29T16:25:26.505Z,17.32
2018-11-29T16:27:55.058Z,15.60
2018-11-29T16:30:57.592Z,15.75
2018-11-29T16:33:34.681Z,15.43
2018-11-29T16:36:03.101Z,17.52
2018-11-29T16:38:31.504Z,16.85
2018-11-29T16:40:59.805Z,16.40
2018-11-29T16:43:28.093Z,15.53
2018-11-29T16:45:56.461Z,14.80
2018-11-29T16:48:31.497Z,16.35
2018-11-29T16:50:59.739Z,15.48
2018-11-29T16:53:27.971Z,15.95
2018-11-29T16:55:56.326Z,14.38
2018-11-29T16:58:28.695Z,15.72
2018-11-29T17:00:57.240Z,15.18
2018-11-29T17:03:25.675Z,15.50
2018-11-29T17:05:54.200Z,15.13
2018-11-29T17:08:22.722Z,16.15
2018-11-29T17:10:51.144Z,15.20
2018-11-29T17:13:19.776Z,13.30
2018-11-29T17:15:48.122Z,15.03
2018-11-29T17:18:16.552Z,15.80
2018-11-29T17:20:44.908Z,15.25
2018-11-29T17:23:13.394Z,16.95
2018-11-29T17:25:43.312Z,14.68
2018-11-29T17:28:11.783Z,14.63
2018-11-29T17:30:40.321Z,14.30
2018-11-29T17:33:09.563Z,13.30
2018-11-29T17:35:37.950Z,14.60
2018-11-29T17:38:06.917Z,14.18
2018-11-29T17:40:36.737Z,14.70
2018-11-29T17:43:05.717Z,13.25
2018-11-29T17:45:34.030Z,13.20
2018-11-29T17:48:10.901Z,13.88
2018-11-29T17:50:40.870Z,13.35
2018-11-29T17:53:09.397Z,13.65
2018-11-29T17:55:38.078Z,13.55
2018-11-29T17:58:12.488Z,13.22
2018-11-29T18:00:42.004Z,14.00
2018-11-29T18:03:10.690Z,13.13
2018-11-29T18:05:39.245Z,12.93
2018-11-29T18:08:07.588Z,13.08
2018-11-29T18:10:38.749Z,12.98
2018-11-29T18:13:14.350Z,12.40
2018-11-29T18:15:43.106Z,12.28
2018-11-29T18:18:11.778Z,13.30
2018-11-29T18:20:40.234Z,12.55
2018-11-29T18:23:09.496Z,13.22
2018-11-29T18:25:37.863Z,14.23
2018-11-29T18:28:07.285Z,13.10
2018-11-29T18:30:35.668Z,12.25
2018-11-29T18:33:04.357Z,12.70
2018-11-29T18:35:32.854Z,13.43
2018-11-29T18:38:01.279Z,13.10
2018-11-29T18:40:29.693Z,14.63
2018-11-29T18:42:59.355Z,14.35
2018-11-29T18:45:28.106Z,13.45
2018-11-29T18:47:56.476Z,14.20
2018-11-29T18:50:25.917Z,14.70
2018-11-29T18:52:54.355Z,14.23
2018-11-29T18:55:25.936Z,13.70
2018-11-29T18:58:01.522Z,13.55
2018-11-29T19:00:32.068Z,11.75
2018-11-29T19:03:00.440Z,12.68
2018-11-29T19:05:29.010Z,12.07
2018-11-29T19:07:57.357Z,12.95
2018-11-29T19:10:25.908Z,12.70
2018-11-29T19:13:14.220Z,12.35
2018-11-29T19:15:42.543Z,13.22
2018-11-29T19:18:11.101Z,11.97
2018-11-29T19:20:39.496Z,12.88
2018-11-29T19:23:07.983Z,12.30
2018-11-29T19:25:36.566Z,12.15
2018-11-29T19:28:06.678Z,12.25
2018-11-29T19:30:35.339Z,12.80
2018-11-29T19:33:17.382Z,13.53
2018-11-29T19:35:43.099Z,12.78
2018-11-29T19:38:11.501Z,12.18
2018-11-29T19:40:40.057Z,13.00
2018-11-29T19:43:08.660Z,12.93
2018-11-29T19:45:37.147Z,13.48
2018-11-29T19:48:08.335Z,12.53
2018-11-29T19:50:36.677Z,12.40
2018-11-29T19:53:12.170Z,13.28
2018-11-29T19:55:40.722Z,12.60
2018-11-29T19:58:09.138Z,11.75
2018-11-29T20:00:37.892Z,12.33
2018-11-29T20:03:07.030Z,13.48
2018-11-29T20:05:35.697Z,12.20
2018-11-29T20:08:05.431Z,11.12
2018-11-29T20:10:34.380Z,12.63
2018-11-29T20:13:04.964Z,12.33
2018-11-29T20:15:39.381Z,12.50
2018-11-29T20:18:09.951Z,12.25
2018-11-29T20:20:38.494Z,12.10
2018-11-29T20:23:08.648Z,13.13
2018-11-29T20:25:37.195Z,12.28
2018-11-29T20:28:06.150Z,14.20
2018-11-29T20:30:35.192Z,12.73
2018-11-29T20:33:03.917Z,12.20
2018-11-29T20:35:32.318Z,12.40
2018-11-29T20:38:00.881Z,12.93
2018-11-29T20:40:33.515Z,12.45
2018-11-29T20:43:02.167Z,13.05
2018-11-29T20:45:35.779Z,11.40
2018-11-29T20:48:16.942Z,11.18
2018-11-29T20:50:45.384Z,11.40
2018-11-29T20:53:19.368Z,12.90
2018-11-29T20:55:47.869Z,12.50
2018-11-29T20:58:16.451Z,11.85
2018-11-29T21:00:44.797Z,12.28
2018-11-29T21:03:13.226Z,11.93
2018-11-29T21:05:42.641Z,11.20
2018-11-29T21:08:11.956Z,11.18
2018-11-29T21:10:40.591Z,11.90
2018-11-29T21:13:09.018Z,13.15
2018-11-29T21:15:39.754Z,13.00
2018-11-29T21:18:13.671Z,12.05
2018-11-29T21:20:42.935Z,13.45
2018-11-29T21:23:15.226Z,12.50
2018-11-29T21:25:49.183Z,11.50
2018-11-29T21:28:17.482Z,14.00
2018-11-29T21:30:45.824Z,13.62
2018-11-29T21:33:14.119Z,11.88
2018-11-29T21:35:42.525Z,13.22
2018-11-29T21:38:15.720Z,11.30
2018-11-29T21:41:03.338Z,11.48
2018-11-29T21:43:31.654Z,12.70
2018-11-29T21:46:00.018Z,11.55
2018-11-29T21:48:28.430Z,12.23
2018-11-29T21:50:56.767Z,11.57
2018-11-29T21:53:25.142Z,11.05
2018-11-29T21:55:53.476Z,13.18
2018-11-29T21:58:21.807Z,12.65
2018-11-29T22:00:50.083Z,12.68
2018-11-29T22:03:18.458Z,12.75
2018-11-29T22:05:46.670Z,12.65
2018-11-29T22:08:14.983Z,12.30
2018-11-29T22:10:43.255Z,11.95
2018-11-29T22:13:11.478Z,12.13
2018-11-29T22:15:39.709Z,12.03
2018-11-29T22:18:18.795Z,11.78
2018-11-29T22:20:52.210Z,13.60
2018-11-29T22:23:20.519Z,12.75
2018-11-29T22:25:48.753Z,12.33
2018-11-29T22:28:17.133Z,11.70
2018-11-29T22:30:45.545Z,12.13
2018-11-29T22:33:13.866Z,12.68
2018-11-29T22:35:42.209Z,13.10
2018-11-29T22:38:10.410Z,12.68
2018-11-29T22:40:38.806Z,13.30
2018-11-29T22:43:07.051Z,11.85
2018-11-29T22:45:35.296Z,13.05
2018-11-29T22:48:03.569Z,12.47
2018-11-29T22:50:31.908Z,12.70
2018-11-29T22:53:00.167Z,13.65
2018-11-29T22:55:28.430Z,13.18
2018-11-29T22:57:56.744Z,13.72
2018-11-29T23:00:25.283Z,13.28
2018-11-29T23:02:53.549Z,13.08
2018-11-29T23:05:22.279Z,12.65
2018-11-29T23:07:50.464Z,12.37
2018-11-29T23:10:18.657Z,12.53
2018-11-29T23:12:46.880Z,12.45
2018-11-29T23:15:15.222Z,11.53
2018-11-29T23:17:43.387Z,11.55
2018-11-29T23:20:12.491Z,12.93
2018-11-29T23:22:40.971Z,11.70
2018-11-29T23:25:12.157Z,12.65
2018-11-29T23:27:40.525Z,12.35
2018-11-29T23:30:13.994Z,14.45
2018-11-29T23:32:42.841Z,11.60
2018-11-29T23:35:12.704Z,13.60
2018-11-29T23:37:40.923Z,13.80
2018-11-29T23:40:16.534Z,13.43
2018-11-29T23:42:45.272Z,13.53
2018-11-29T23:45:14.111Z,12.53
2018-11-29T23:47:42.470Z,12.45
2018-11-29T23:50:16.331Z,12.20
2018-11-29T23:52:44.906Z,12.70
2018-11-29T23:55:15.193Z,12.07
2018-11-29T23:57:43.466Z,12.75
